Time;durP1;ratioP1;P1;durP2;ratioP2;P2;SDS_P1;SDS_P2;PMS_P1;PMS_P2;Temp;Humidity;BMP_temperature;BMP_pressure;BME280_temperature;BME280_humidity;BME280_pressure;Samples;Min_cycle;Max_cycle;Signal;HPM_P1;HPM_P2
2021/06/22 00:00:28;;;;;;;14.52;13.32;;;18.40;78.80;;;;;;5163651;28;20038;-70
2021/06/22 00:03:01;;;;;;;14.48;13.18;;;18.40;80.10;;;;;;5163444;28;20073;-70
2021/06/22 00:05:35;;;;;;;13.88;12.77;;;18.40;79.30;;;;;;5165106;28;20038;-70
2021/06/22 00:08:06;;;;;;;13.88;12.55;;;18.40;79.50;;;;;;5160811;28;20152;-70
2021/06/22 00:10:38;;;;;;;14.45;13.18;;;18.40;78.70;;;;;;5164563;28;20065;-70
2021/06/22 00:13:10;;;;;;;14.95;13.55;;;18.40;78.50;;;;;;5163445;28;20568;-70
2021/06/22 00:15:43;;;;;;;14.45;13.25;;;18.50;78.30;;;;;;5158873;28;20130;-70
2021/06/22 00:18:15;;;;;;;14.50;13.18;;;18.50;80.20;;;;;;5168585;28;20652;-70
2021/06/22 00:20:47;;;;;;;14.32;13.10;;;18.30;79.30;;;;;;5146109;28;20046;-70
2021/06/22 00:23:19;;;;;;;14.05;12.77;;;18.30;79.30;;;;;;5161019;28;20499;-69
2021/06/22 00:25:54;;;;;;;13.57;12.48;;;18.10;79.90;;;;;;5160634;28;20058;-70
2021/06/22 00:28:26;;;;;;;14.02;12.93;;;18.00;80.40;;;;;;5162232;28;20350;-70
2021/06/22 00:30:58;;;;;;;14.02;12.90;;;18.00;79.80;;;;;;5161251;28;20074;-70
2021/06/22 00:33:30;;;;;;;14.25;12.88;;;18.00;79.90;;;;;;5165347;28;20046;-70
2021/06/22 00:36:03;;;;;;;14.80;13.32;;;18.00;79.90;;;;;;5165008;28;20042;-70
2021/06/22 00:38:34;;;;;;;13.63;12.52;;;18.00;81.30;;;;;;5164001;28;20458;-70
2021/06/22 00:41:07;;;;;;;13.77;12.77;;;17.80;81.60;;;;;;5160314;28;20649;-70
2021/06/22 00:43:40;;;;;;;13.95;12.75;;;17.80;81.70;;;;;;5161554;28;20053;-70
2021/06/22 00:46:13;;;;;;;14.25;12.90;;;17.70;81.10;;;;;;5178718;28;20042;-70
2021/06/22 00:48:45;;;;;;;14.00;12.80;;;17.70;80.80;;;;;;5164452;28;20042;-70
2021/06/22 00:51:17;;;;;;;13.98;12.88;;;17.60;81.00;;;;;;5149767;28;20042;-70
2021/06/22 00:53:49;;;;;;;13.50;12.50;;;17.60;81.50;;;;;;5163874;28;20104;-70
2021/06/22 00:56:24;;;;;;;13.80;12.70;;;17.60;81.50;;;;;;5163016;28;20128;-71
2021/06/22 00:58:56;;;;;;;13.82;12.73;;;17.50;82.50;;;;;;5162323;28;20047;-70
2021/06/22 01:01:30;;;;;;;14.30;13.20;;;17.30;83.60;;;;;;5136222;28;20050;-70
2021/06/22 01:04:02;;;;;;;14.02;12.93;;;17.20;84.70;;;;;;5160194;28;20137;-72
2021/06/22 01:06:36;;;;;;;14.32;13.23;;;17.10;85.40;;;;;;5143411;28;20599;-71
2021/06/22 01:09:12;;;;;;;14.75;13.45;;;17.10;85.50;;;;;;5160543;28;20046;-71
2021/06/22 01:11:44;;;;;;;14.57;13.45;;;17.00;85.40;;;;;;5160550;28;20078;-70
2021/06/22 01:14:18;;;;;;;14.38;13.27;;;17.00;84.90;;;;;;5176457;28;20046;-70
2021/06/22 01:16:51;;;;;;;14.68;13.43;;;16.90;85.30;;;;;;5160841;28;20038;-70
2021/06/22 01:19:24;;;;;;;15.23;14.02;;;16.90;85.60;;;;;;5163515;28;20069;-71
2021/06/22 01:22:04;;;;;;;14.65;13.45;;;16.80;85.90;;;;;;5162885;28;20066;-70
2021/06/22 01:24:56;;;;;;;15.02;13.82;;;16.80;86.50;;;;;;5161031;28;20051;-70
2021/06/22 01:27:28;;;;;;;15.10;13.65;;;16.90;85.90;;;;;;5160723;28;20046;-70
2021/06/22 01:30:00;;;;;;;14.77;13.57;;;16.90;85.90;;;;;;5164295;28;20045;-70
2021/06/22 01:32:36;;;;;;;14.52;13.40;;;16.90;85.20;;;;;;5145465;28;20063;-70
2021/06/22 01:35:10;;;;;;;14.80;13.60;;;17.00;84.40;;;;;;5161606;28;20929;-70
2021/06/22 01:37:59;;;;;;;15.20;14.00;;;17.10;84.30;;;;;;5158197;28;20109;-70
2021/06/22 01:40:48;;;;;;;14.57;13.43;;;17.10;83.60;;;;;;5148607;28;20077;-70
2021/06/22 01:43:24;;;;;;;15.13;13.82;;;17.20;83.80;;;;;;5149957;28;20046;-70
2021/06/22 01:45:58;;;;;;;14.90;13.70;;;17.20;83.50;;;;;;5159816;28;20041;-70
2021/06/22 01:48:30;;;;;;;14.65;13.45;;;17.20;83.20;;;;;;5162533;28;20455;-71
2021/06/22 01:51:03;;;;;;;14.60;13.50;;;17.20;83.20;;;;;;5141816;28;20109;-70
2021/06/22 01:53:35;;;;;;;15.20;13.90;;;17.20;83.10;;;;;;5158185;28;20096;-70
2021/06/22 01:56:14;;;;;;;14.52;13.30;;;17.20;82.90;;;;;;5147223;28;20050;-70
2021/06/22 01:58:53;;;;;;;14.90;13.45;;;17.20;83.10;;;;;;5157438;28;20128;-70
2021/06/22 02:01:43;;;;;;;14.55;13.32;;;17.20;83.30;;;;;;5162691;28;20053;-69
2021/06/22 02:04:24;;;;;;;14.73;13.52;;;17.20;83.30;;;;;;5160270;28;20046;-69
2021/06/22 02:06:59;;;;;;;14.65;13.45;;;17.20;82.90;;;;;;5146868;28;20045;-70
2021/06/22 02:09:57;;;;;;;14.88;13.57;;;17.10;83.30;;;;;;5159660;28;20433;-70
2021/06/22 02:12:50;;;;;;;14.13;13.05;;;17.10;83.30;;;;;;5165994;28;20045;-70
2021/06/22 02:15:23;;;;;;;14.38;13.35;;;17.10;83.10;;;;;;5159669;28;20448;-70
2021/06/22 02:17:57;;;;;;;14.77;13.68;;;17.20;83.70;;;;;;5156237;28;20062;-71
2021/06/22 02:20:30;;;;;;;14.63;13.52;;;17.10;83.50;;;;;;5156580;28;20579;-70
2021/06/22 02:23:03;;;;;;;14.80;13.43;;;17.10;83.60;;;;;;5128513;28;20050;-70
2021/06/22 02:25:36;;;;;;;14.38;13.05;;;17.10;83.80;;;;;;5158658;28;20053;-70
2021/06/22 02:28:18;;;;;;;13.98;12.88;;;17.00;83.50;;;;;;5158789;28;20042;-70
2021/06/22 02:30:53;;;;;;;14.85;13.65;;;16.90;83.90;;;;;;5154487;28;20054;-70
2021/06/22 02:33:27;;;;;;;14.38;13.27;;;16.90;84.40;;;;;;5160978;28;20039;-70
2021/06/22 02:36:01;;;;;;;15.32;14.02;;;16.80;84.30;;;;;;5142536;28;20475;-71
2021/06/22 02:38:42;;;;;;;14.80;13.60;;;16.80;84.50;;;;;;5158290;28;20093;-70
2021/06/22 02:41:20;;;;;;;15.13;14.00;;;16.70;84.30;;;;;;5144453;28;20132;-71
2021/06/22 02:43:58;;;;;;;15.23;14.00;;;16.70;84.20;;;;;;5158608;28;20137;-71
2021/06/22 02:46:34;;;;;;;15.00;13.68;;;16.70;83.90;;;;;;5158698;28;20043;-70
2021/06/22 02:49:07;;;;;;;15.27;14.07;;;16.70;84.20;;;;;;5160571;28;20050;-71
2021/06/22 02:51:43;;;;;;;14.60;13.38;;;16.70;84.20;;;;;;5146121;28;20062;-70
2021/06/22 02:54:16;;;;;;;14.95;13.77;;;16.60;84.00;;;;;;5155991;28;20105;-70
2021/06/22 02:56:48;;;;;;;14.85;13.45;;;16.70;83.90;;;;;;5178032;28;20555;-71
2021/06/22 02:59:20;;;;;;;14.60;13.50;;;16.60;83.70;;;;;;5160839;28;20030;-70
2021/06/22 03:01:53;;;;;;;14.90;13.70;;;16.70;83.40;;;;;;5162313;28;20054;-70
2021/06/22 03:04:27;;;;;;;15.00;13.90;;;16.70;83.20;;;;;;5146753;28;20046;-70
2021/06/22 03:06:59;;;;;;;14.43;13.23;;;16.80;82.90;;;;;;5142075;28;20050;-70
2021/06/22 03:09:34;;;;;;;14.55;13.32;;;16.80;82.40;;;;;;5159391;28;20053;-70
2021/06/22 03:12:09;;;;;;;14.38;13.27;;;16.80;82.80;;;;;;5159488;28;20045;-70
2021/06/22 03:15:14;;;;;;;14.18;13.07;;;16.80;82.10;;;;;;5139803;28;20077;-70
2021/06/22 03:17:48;;;;;;;14.60;13.20;;;16.80;82.10;;;;;;5158791;28;20077;-70
2021/06/22 03:20:22;;;;;;;14.60;13.13;;;16.80;82.90;;;;;;5161198;28;20046;-69
2021/06/22 03:22:54;;;;;;;14.32;13.02;;;16.80;81.90;;;;;;5159073;28;20050;-70
2021/06/22 03:25:26;;;;;;;14.57;13.30;;;16.80;82.50;;;;;;5160468;28;20432;-70
2021/06/22 03:28:06;;;;;;;14.00;12.98;;;16.80;82.70;;;;;;5156654;28;20045;-70
2021/06/22 03:31:13;;;;;;;14.45;13.25;;;16.80;82.50;;;;;;5092873;29;20051;-70
2021/06/22 03:33:46;;;;;;;14.57;13.38;;;16.80;82.10;;;;;;5149081;28;20044;-70
2021/06/22 03:36:18;;;;;;;14.55;13.35;;;16.80;82.00;;;;;;5157732;28;20535;-70
2021/06/22 03:38:52;;;;;;;14.70;13.60;;;16.90;82.30;;;;;;5158910;28;20096;-70
2021/06/22 03:41:24;;;;;;;14.30;13.25;;;16.80;81.50;;;;;;5158926;28;20035;-70
2021/06/22 03:43:57;;;;;;;14.70;13.50;;;16.80;81.80;;;;;;5142023;28;20042;-70
2021/06/22 03:46:29;;;;;;;14.68;13.57;;;16.80;81.80;;;;;;5159738;28;20046;-70
2021/06/22 03:49:01;;;;;;;14.88;13.57;;;16.60;82.00;;;;;;5160310;28;20443;-71
2021/06/22 03:51:35;;;;;;;14.88;13.68;;;16.50;82.80;;;;;;5163513;28;20561;-71
2021/06/22 03:54:07;;;;;;;14.45;13.25;;;16.40;83.10;;;;;;5160694;28;20078;-71
2021/06/22 03:56:39;;;;;;;14.25;12.90;;;16.40;83.50;;;;;;5158892;28;20070;-71
2021/06/22 03:59:22;;;;;;;14.15;13.05;;;16.40;82.90;;;;;;5158625;28;20046;-71
2021/06/22 04:01:54;;;;;;;14.15;12.82;;;16.50;82.60;;;;;;5160410;28;20043;-70
2021/06/22 04:04:26;;;;;;;14.52;13.32;;;16.50;82.50;;;;;;5162178;28;20046;-70
2021/06/22 04:07:09;;;;;;;14.35;13.25;;;16.50;81.70;;;;;;5157119;28;20046;-69
2021/06/22 04:09:42;;;;;;;14.02;12.95;;;16.50;82.00;;;;;;5158765;28;20050;-70
2021/06/22 04:12:14;;;;;;;14.13;12.93;;;16.50;82.10;;;;;;5160598;28;20046;-71
2021/06/22 04:14:46;;;;;;;13.77;12.77;;;16.60;82.20;;;;;;5158527;28;20393;-72
2021/06/22 04:17:18;;;;;;;14.02;13.02;;;16.60;82.10;;;;;;5160685;28;20128;-73
2021/06/22 04:19:50;;;;;;;14.00;12.80;;;16.60;81.50;;;;;;5159565;28;20038;-72
2021/06/22 04:22:22;;;;;;;13.93;12.82;;;16.60;82.10;;;;;;5159974;28;20104;-71
2021/06/22 04:25:04;;;;;;;13.75;12.32;;;16.60;81.20;;;;;;5145609;28;20453;-71
2021/06/22 04:27:37;;;;;;;14.43;12.90;;;16.60;81.90;;;;;;5164378;28;20504;-70
2021/06/22 04:30:09;;;;;;;13.70;12.70;;;16.60;81.70;;;;;;5161484;28;20465;-71
2021/06/22 04:32:41;;;;;;;13.98;12.88;;;16.60;81.90;;;;;;5164006;28;20089;-71
2021/06/22 04:35:14;;;;;;;13.85;12.75;;;16.60;81.60;;;;;;5160810;28;20042;-70
2021/06/22 04:37:46;;;;;;;13.57;12.48;;;16.70;81.00;;;;;;5166910;28;20042;-70
2021/06/22 04:40:18;;;;;;;13.98;12.88;;;16.90;81.90;;;;;;5164744;28;20064;-70
2021/06/22 04:42:50;;;;;;;14.20;12.88;;;17.00;82.00;;;;;;5164107;28;20507;-71
2021/06/22 04:45:25;;;;;;;13.85;12.75;;;17.10;81.30;;;;;;5157226;28;20049;-70
2021/06/22 04:47:58;;;;;;;14.10;13.00;;;17.20;80.40;;;;;;5161841;28;20381;-70
2021/06/22 04:50:31;;;;;;;14.25;13.05;;;17.30;81.00;;;;;;5161044;28;20393;-70
2021/06/22 04:53:03;;;;;;;13.70;12.70;;;17.40;81.30;;;;;;5158385;28;20500;-69
2021/06/22 04:55:35;;;;;;;14.13;13.02;;;17.50;80.30;;;;;;5160338;28;20042;-70
2021/06/22 04:58:07;;;;;;;14.80;13.50;;;17.60;81.30;;;;;;5160622;28;20070;-71
2021/06/22 05:00:39;;;;;;;14.23;13.13;;;17.60;80.50;;;;;;5163206;28;20535;-71
2021/06/22 05:03:11;;;;;;;14.25;13.07;;;17.80;80.80;;;;;;5162804;28;20050;-70
2021/06/22 05:05:43;;;;;;;14.48;13.27;;;17.90;81.10;;;;;;5157479;28;20053;-70
2021/06/22 05:08:14;;;;;;;14.13;13.10;;;18.00;80.80;;;;;;5156855;28;20052;-70
2021/06/22 05:10:46;;;;;;;14.05;12.90;;;18.10;80.80;;;;;;5158821;28;20161;-71
2021/06/22 05:13:20;;;;;;;14.05;12.95;;;18.20;80.60;;;;;;5160339;28;20150;-71
2021/06/22 05:15:52;;;;;;;14.57;13.32;;;18.30;80.30;;;;;;5162791;28;20054;-70
2021/06/22 05:18:24;;;;;;;14.32;13.10;;;18.40;80.10;;;;;;5161649;28;20042;-70
2021/06/22 05:20:56;;;;;;;14.02;13.02;;;18.40;79.20;;;;;;5163271;28;20038;-70
2021/06/22 05:23:28;;;;;;;14.18;12.98;;;18.50;79.50;;;;;;5159641;28;20042;-71
2021/06/22 05:26:00;;;;;;;13.93;12.82;;;18.60;78.70;;;;;;5158400;28;20051;-70
2021/06/22 05:28:32;;;;;;;14.05;12.90;;;18.70;78.60;;;;;;5159384;28;20104;-73
2021/06/22 05:31:04;;;;;;;14.90;13.60;;;18.80;77.10;;;;;;5155440;28;20042;-71
2021/06/22 05:33:36;;;;;;;14.13;12.93;;;18.80;77.40;;;;;;5157081;28;20038;-74
2021/06/22 05:36:08;;;;;;;14.75;13.48;;;18.90;77.20;;;;;;5142713;28;20042;-72
2021/06/22 05:38:40;;;;;;;14.70;13.63;;;19.00;77.00;;;;;;5159627;28;20062;-73
2021/06/22 05:41:13;;;;;;;14.68;13.57;;;19.10;76.90;;;;;;5162168;28;20046;-71
2021/06/22 05:43:45;;;;;;;14.50;13.20;;;19.20;75.90;;;;;;5146264;28;20059;-71
2021/06/22 05:46:17;;;;;;;15.77;14.50;;;19.30;76.20;;;;;;5160339;28;20042;-71
2021/06/22 05:48:49;;;;;;;15.48;14.18;;;19.40;75.70;;;;;;5163938;28;20101;-74
2021/06/22 05:51:21;;;;;;;15.00;13.85;;;19.50;75.10;;;;;;5160233;28;20684;-74
2021/06/22 05:53:53;;;;;;;15.10;14.00;;;19.60;75.30;;;;;;5160624;28;20073;-74
2021/06/22 05:56:25;;;;;;;15.88;14.45;;;19.60;74.80;;;;;;5160871;28;20116;-74
2021/06/22 05:58:58;;;;;;;15.38;14.27;;;19.70;75.00;;;;;;5161644;28;20069;-74
2021/06/22 06:01:30;;;;;;;15.23;13.93;;;19.70;75.10;;;;;;5158973;28;20142;-74
2021/06/22 06:04:03;;;;;;;15.00;13.80;;;19.80;75.80;;;;;;5161168;28;20049;-73
2021/06/22 06:06:34;;;;;;;14.95;13.75;;;19.90;76.00;;;;;;5156870;28;20078;-73
2021/06/22 06:09:06;;;;;;;15.07;13.88;;;20.00;75.50;;;;;;5162965;28;20096;-73
2021/06/22 06:11:38;;;;;;;15.25;14.10;;;20.10;74.90;;;;;;5158603;28;20117;-74
2021/06/22 06:14:10;;;;;;;14.95;13.82;;;20.20;75.30;;;;;;5162341;28;20114;-72
2021/06/22 06:16:42;;;;;;;14.88;13.77;;;20.20;74.30;;;;;;5158177;28;20050;-76
2021/06/22 06:19:15;;;;;;;14.93;13.75;;;20.30;75.00;;;;;;5149330;28;20818;-72
2021/06/22 06:21:48;;;;;;;15.00;13.90;;;20.40;73.90;;;;;;5142934;28;20442;-72
2021/06/22 06:24:20;;;;;;;15.25;13.93;;;20.40;74.00;;;;;;5161784;28;20126;-72
2021/06/22 06:32:11;;;;;;;15.38;14.18;;;20.70;73.00;;;;;;5160622;28;20042;-72
2021/06/22 06:34:43;;;;;;;15.63;14.32;;;20.70;72.30;;;;;;5161671;28;20043;-73
2021/06/22 06:37:15;;;;;;;15.45;14.15;;;20.70;72.80;;;;;;5161399;28;20049;-72
2021/06/22 06:39:47;;;;;;;14.80;13.60;;;20.80;72.70;;;;;;5161760;28;20061;-73
2021/06/22 06:42:18;;;;;;;14.50;13.40;;;20.90;72.70;;;;;;5158896;28;20125;-72
2021/06/22 06:44:51;;;;;;;14.82;13.70;;;21.00;72.60;;;;;;5161614;28;20056;-73
2021/06/22 06:47:23;;;;;;;14.70;13.60;;;21.10;72.80;;;;;;5142608;28;20153;-72
2021/06/22 06:49:55;;;;;;;15.00;13.90;;;21.20;72.70;;;;;;5161023;28;20042;-72
2021/06/22 06:52:27;;;;;;;14.80;13.70;;;21.30;71.70;;;;;;5158585;28;20042;-72
2021/06/22 06:54:59;;;;;;;14.82;13.63;;;21.30;72.50;;;;;;5164569;28;20500;-72
2021/06/22 06:57:31;;;;;;;15.43;14.10;;;21.50;71.90;;;;;;5143951;28;20523;-72
2021/06/22 07:00:03;;;;;;;15.80;14.60;;;21.50;71.20;;;;;;5159100;28;20057;-73
2021/06/22 07:02:35;;;;;;;15.57;14.13;;;21.40;71.50;;;;;;5161234;28;20473;-73
2021/06/22 07:05:08;;;;;;;15.65;14.43;;;21.50;71.90;;;;;;5159718;28;20100;-73
2021/06/22 07:07:40;;;;;;;15.27;14.07;;;21.60;69.90;;;;;;5160797;28;20100;-72
2021/06/22 07:10:13;;;;;;;14.98;13.77;;;21.60;70.90;;;;;;5161164;28;20046;-72
2021/06/22 07:12:46;;;;;;;15.85;14.45;;;21.70;71.10;;;;;;5160260;28;20092;-72
2021/06/22 07:15:18;;;;;;;15.35;14.15;;;21.80;72.00;;;;;;5157019;28;20046;-73
2021/06/22 07:17:52;;;;;;;15.07;14.00;;;21.90;69.90;;;;;;5160388;28;20050;-73
2021/06/22 07:20:24;;;;;;;15.43;14.32;;;22.00;70.50;;;;;;5144596;28;20092;-72
2021/06/22 07:22:56;;;;;;;15.18;14.07;;;22.10;70.20;;;;;;5158873;28;20078;-73
2021/06/22 07:25:28;;;;;;;16.10;14.75;;;22.20;71.10;;;;;;5160895;28;20046;-73
2021/06/22 07:28:00;;;;;;;15.45;14.35;;;22.30;70.20;;;;;;5159272;28;20050;-74
2021/06/22 07:30:33;;;;;;;15.13;14.02;;;22.40;68.70;;;;;;5159034;28;20092;-74
2021/06/22 07:33:05;;;;;;;15.60;14.43;;;22.40;68.00;;;;;;5160404;28;20045;-73
2021/06/22 07:35:37;;;;;;;16.13;14.77;;;22.40;68.40;;;;;;5160707;28;20065;-73
2021/06/22 07:38:09;;;;;;;16.15;14.65;;;22.50;69.00;;;;;;5159496;28;20117;-73
2021/06/22 07:40:41;;;;;;;15.55;14.35;;;22.60;68.00;;;;;;5147108;28;20524;-75
2021/06/22 07:43:15;;;;;;;15.90;14.68;;;22.70;68.70;;;;;;5162625;28;20054;-72
2021/06/22 07:45:47;;;;;;;15.98;14.77;;;22.70;67.00;;;;;;5159190;28;20047;-73
2021/06/22 07:48:19;;;;;;;16.08;14.63;;;22.80;68.50;;;;;;5162245;28;20131;-72
2021/06/22 07:50:51;;;;;;;15.93;14.73;;;22.90;68.70;;;;;;5164216;28;20056;-72
2021/06/22 07:53:23;;;;;;;16.20;14.90;;;22.90;68.60;;;;;;5165236;28;20101;-73
2021/06/22 07:55:55;;;;;;;15.80;14.55;;;23.00;69.00;;;;;;5158945;28;20540;-73
2021/06/22 07:58:27;;;;;;;16.30;15.00;;;23.00;68.20;;;;;;5165358;28;20041;-73
2021/06/22 08:00:59;;;;;;;16.05;14.88;;;23.10;68.70;;;;;;5164102;28;20125;-73
2021/06/22 08:03:31;;;;;;;16.50;15.20;;;23.20;68.50;;;;;;5166351;28;20054;-74
2021/06/22 08:06:04;;;;;;;16.88;15.48;;;23.20;68.50;;;;;;5163526;28;20073;-73
2021/06/22 08:08:35;;;;;;;16.75;15.45;;;23.20;67.40;;;;;;5162209;28;20074;-73
2021/06/22 08:11:07;;;;;;;16.88;15.50;;;23.30;66.60;;;;;;5164667;28;20050;-73
2021/06/22 08:13:39;;;;;;;17.08;15.43;;;23.30;68.10;;;;;;5164394;28;20133;-74
2021/06/22 08:16:11;;;;;;;16.52;15.23;;;23.30;68.20;;;;;;5163468;28;20139;-74
2021/06/22 08:18:43;;;;;;;16.55;15.35;;;23.30;67.50;;;;;;5163990;28;20069;-73
2021/06/22 08:21:15;;;;;;;16.20;14.90;;;23.40;67.10;;;;;;5163006;28;20430;-73
2021/06/22 08:23:47;;;;;;;16.70;15.20;;;23.50;68.00;;;;;;5163020;28;20078;-73
2021/06/22 08:26:19;;;;;;;16.33;15.07;;;23.50;67.30;;;;;;5160052;28;20069;-73
2021/06/22 08:28:51;;;;;;;16.17;14.88;;;23.50;67.60;;;;;;5164876;28;20124;-73
2021/06/22 08:31:23;;;;;;;16.02;14.80;;;23.60;68.00;;;;;;5164564;28;20108;-73
2021/06/22 08:33:55;;;;;;;15.75;14.45;;;23.60;68.00;;;;;;5149560;28;20145;-73
2021/06/22 08:36:27;;;;;;;15.65;14.45;;;23.70;68.50;;;;;;5163348;28;20042;-73
2021/06/22 08:38:59;;;;;;;15.68;14.52;;;23.70;68.20;;;;;;5163622;28;20129;-72
2021/06/22 08:41:33;;;;;;;15.68;14.38;;;23.70;68.70;;;;;;5164670;28;20044;-74
2021/06/22 08:44:09;;;;;;;15.65;14.52;;;23.70;67.90;;;;;;5162685;28;20116;-72
2021/06/22 08:46:41;;;;;;;16.00;14.70;;;23.70;67.50;;;;;;5166484;28;20074;-73
2021/06/22 08:49:14;;;;;;;15.30;14.10;;;23.70;66.70;;;;;;5163783;28;20598;-73
2021/06/22 08:51:46;;;;;;;15.43;14.18;;;23.70;66.40;;;;;;5164589;28;20415;-73
2021/06/22 08:54:18;;;;;;;15.75;14.55;;;23.80;67.60;;;;;;5161103;28;20050;-74
2021/06/22 08:56:50;;;;;;;15.27;14.18;;;23.90;67.80;;;;;;5163787;28;20038;-74
2021/06/22 08:59:22;;;;;;;15.48;14.27;;;24.00;67.40;;;;;;5163026;28;20112;-73
2021/06/22 09:01:54;;;;;;;15.93;14.60;;;24.00;66.80;;;;;;5163727;28;20073;-74
2021/06/22 09:04:26;;;;;;;15.85;14.65;;;24.00;65.80;;;;;;5145118;28;20137;-73
2021/06/22 09:06:58;;;;;;;15.70;14.60;;;24.10;64.80;;;;;;5162954;28;20053;-73
2021/06/22 09:09:35;;;;;;;16.48;14.95;;;24.00;65.20;;;;;;5162925;28;20102;-73
2021/06/22 09:12:09;;;;;;;15.82;14.43;;;24.10;66.10;;;;;;5163640;28;20039;-74
2021/06/22 09:14:42;;;;;;;15.93;14.73;;;24.10;64.80;;;;;;5162436;28;20054;-73
2021/06/22 09:17:13;;;;;;;15.77;14.48;;;24.20;64.20;;;;;;5161505;28;20061;-73
2021/06/22 09:19:52;;;;;;;16.20;14.90;;;24.40;64.60;;;;;;5164177;28;20050;-73
2021/06/22 09:22:27;;;;;;;16.00;14.68;;;24.40;64.80;;;;;;5149181;28;20124;-73
2021/06/22 09:25:12;;;;;;;16.20;15.00;;;24.50;66.10;;;;;;5160258;28;20128;-73
2021/06/22 09:27:54;;;;;;;16.02;14.82;;;24.40;65.10;;;;;;5163316;28;20050;-73
2021/06/22 09:30:46;;;;;;;15.80;14.65;;;24.30;66.30;;;;;;5150194;28;20049;-73
2021/06/22 09:33:26;;;;;;;16.23;14.88;;;24.40;66.10;;;;;;5148601;28;20053;-74
2021/06/22 09:36:07;;;;;;;15.97;14.77;;;24.60;65.90;;;;;;5161706;28;20046;-73
2021/06/22 09:38:50;;;;;;;16.13;14.93;;;24.80;64.20;;;;;;5162116;28;20128;-73
2021/06/22 09:41:25;;;;;;;16.40;15.20;;;24.90;65.40;;;;;;5160857;28;20614;-73
2021/06/22 09:44:00;;;;;;;16.15;14.82;;;24.90;64.20;;;;;;5151096;28;20042;-73
2021/06/22 09:46:50;;;;;;;15.85;14.65;;;25.10;65.10;;;;;;5161972;28;20347;-73
2021/06/22 09:49:22;;;;;;;16.52;15.23;;;25.20;64.00;;;;;;5159835;28;20053;-72
2021/06/22 09:52:15;;;;;;;16.27;14.98;;;25.20;63.20;;;;;;5163183;28;20053;-73
2021/06/22 09:54:48;;;;;;;15.95;14.75;;;25.30;63.10;;;;;;5158596;28;20125;-73
2021/06/22 09:57:28;;;;;;;16.25;14.95;;;25.50;62.90;;;;;;5159808;28;20772;-73
2021/06/22 10:00:05;;;;;;;16.00;14.87;;;25.60;61.90;;;;;;5161347;28;20455;-73
2021/06/22 10:02:52;;;;;;;16.48;15.15;;;25.60;62.80;;;;;;5160782;28;20046;-73
2021/06/22 10:05:24;;;;;;;16.40;15.00;;;25.70;63.40;;;;;;5163471;28;20050;-73
2021/06/22 10:08:02;;;;;;;16.85;15.30;;;25.80;63.30;;;;;;5160351;28;20519;-73
2021/06/22 10:10:38;;;;;;;16.27;14.98;;;25.90;61.40;;;;;;5161507;28;20046;-73
2021/06/22 10:13:40;;;;;;;16.00;14.80;;;25.90;61.90;;;;;;5160501;28;20043;-73
2021/06/22 10:16:24;;;;;;;16.23;15.00;;;25.70;61.80;;;;;;5165723;28;20153;-72
2021/06/22 10:18:56;;;;;;;16.27;15.02;;;25.70;62.70;;;;;;5159978;28;20085;-75
2021/06/22 10:21:29;;;;;;;16.58;15.27;;;25.70;62.90;;;;;;5158219;28;20481;-73
2021/06/22 10:24:02;;;;;;;15.98;14.68;;;25.60;62.10;;;;;;5163483;28;20043;-73
2021/06/22 10:26:35;;;;;;;16.40;15.02;;;25.50;61.70;;;;;;5160598;28;20050;-73
2021/06/22 10:29:07;;;;;;;15.48;14.27;;;25.60;61.20;;;;;;5145600;28;20052;-74
2021/06/22 10:31:39;;;;;;;16.13;14.82;;;25.60;62.40;;;;;;5161744;28;20058;-74
2021/06/22 10:34:11;;;;;;;15.77;14.43;;;25.60;63.00;;;;;;5161245;28;20046;-73
2021/06/22 10:36:59;;;;;;;15.88;14.57;;;25.60;63.10;;;;;;5161432;28;20137;-73
2021/06/22 10:39:50;;;;;;;16.08;14.70;;;25.50;63.60;;;;;;5161803;28;20034;-74
2021/06/22 10:42:22;;;;;;;16.88;15.32;;;25.20;60.50;;;;;;5158866;28;20132;-73
2021/06/22 10:44:57;;;;;;;16.33;14.93;;;24.80;61.30;;;;;;5175602;28;20050;-73
2021/06/22 10:47:34;;;;;;;16.70;15.50;;;24.50;61.40;;;;;;5158791;28;20081;-73
2021/06/22 10:50:24;;;;;;;16.55;15.25;;;24.30;61.70;;;;;;5162443;28;20048;-73
2021/06/22 10:53:00;;;;;;;16.80;15.40;;;24.20;62.20;;;;;;5161713;28;20123;-72
2021/06/22 10:55:37;;;;;;;16.20;14.95;;;24.20;62.00;;;;;;5162049;28;20738;-72
2021/06/22 10:58:16;;;;;;;17.60;15.95;;;24.00;62.60;;;;;;5158794;28;20459;-74
2021/06/22 11:00:51;;;;;;;16.30;14.90;;;24.00;62.30;;;;;;5163370;28;20058;-73
2021/06/22 11:03:34;;;;;;;16.00;14.80;;;23.80;62.90;;;;;;5162777;28;20384;-73
2021/06/22 11:06:09;;;;;;;16.27;15.07;;;23.70;63.30;;;;;;5148324;28;20141;-73
2021/06/22 11:08:42;;;;;;;16.10;14.90;;;23.60;63.80;;;;;;5147839;28;20473;-73
2021/06/22 11:11:14;;;;;;;16.25;14.95;;;23.50;64.10;;;;;;5160282;28;20157;-73
2021/06/22 11:13:59;;;;;;;16.10;14.70;;;23.50;64.10;;;;;;5160651;28;20206;-73
2021/06/22 11:16:32;;;;;;;15.50;14.40;;;23.40;63.30;;;;;;5159593;28;20104;-73
2021/06/22 11:19:07;;;;;;;16.48;15.18;;;23.30;64.10;;;;;;5133853;28;20046;-73
2021/06/22 11:21:42;;;;;;;16.25;14.75;;;23.20;63.70;;;;;;5151190;28;20128;-72
2021/06/22 11:24:29;;;;;;;15.50;14.30;;;23.00;64.60;;;;;;5157525;28;20100;-73
2021/06/22 11:27:04;;;;;;;16.30;14.95;;;23.00;65.10;;;;;;5161401;28;20100;-72
2021/06/22 11:29:36;;;;;;;16.20;14.68;;;22.90;64.20;;;;;;5163540;28;20046;-73
2021/06/22 11:32:09;;;;;;;17.35;15.68;;;22.70;65.30;;;;;;5164160;28;20052;-73
2021/06/22 11:34:55;;;;;;;16.58;15.27;;;22.40;66.10;;;;;;5162760;28;20070;-75
2021/06/22 11:37:28;;;;;;;16.48;15.10;;;22.20;67.10;;;;;;5163592;28;20046;-72
2021/06/22 11:40:09;;;;;;;16.23;14.93;;;22.00;67.20;;;;;;5164954;28;20415;-72
2021/06/22 11:42:43;;;;;;;15.93;14.65;;;21.90;68.20;;;;;;5166316;28;20073;-72
2021/06/22 11:45:15;;;;;;;15.93;14.52;;;21.80;68.90;;;;;;5160984;28;20054;-72
2021/06/22 11:47:47;;;;;;;16.08;14.65;;;21.80;70.40;;;;;;5162387;28;20109;-73
2021/06/22 11:50:24;;;;;;;16.35;14.80;;;21.70;72.10;;;;;;5163099;28;20114;-73
2021/06/22 11:52:59;;;;;;;15.68;14.27;;;21.70;72.70;;;;;;5163082;28;21043;-72
2021/06/22 11:55:40;;;;;;;15.40;14.20;;;21.70;72.30;;;;;;5166249;28;20069;-73
2021/06/22 11:58:16;;;;;;;16.08;14.65;;;21.70;72.20;;;;;;5164314;28;20038;-72
2021/06/22 12:00:51;;;;;;;15.60;14.40;;;21.80;73.10;;;;;;5153526;28;20657;-72
2021/06/22 12:03:29;;;;;;;15.40;14.20;;;21.80;74.00;;;;;;5166018;28;20077;-72
2021/06/22 12:06:04;;;;;;;15.65;14.35;;;21.80;73.80;;;;;;5163152;28;20034;-73
2021/06/22 12:08:37;;;;;;;16.05;14.75;;;21.80;72.90;;;;;;5165016;28;20046;-73
2021/06/22 12:11:09;;;;;;;16.65;15.25;;;21.80;73.10;;;;;;5165414;28;20455;-73
2021/06/22 12:13:44;;;;;;;15.77;14.48;;;21.80;74.00;;;;;;5166041;28;20539;-73
2021/06/22 12:16:23;;;;;;;15.70;14.20;;;21.70;74.00;;;;;;5160601;28;20133;-73
2021/06/22 12:18:59;;;;;;;15.55;14.35;;;21.70;74.60;;;;;;5166668;28;20865;-74
2021/06/22 12:21:34;;;;;;;14.88;13.77;;;21.80;74.70;;;;;;5163563;28;20078;-73
2021/06/22 12:24:10;;;;;;;15.60;14.38;;;21.80;74.60;;;;;;5165224;28;20045;-73
2021/06/22 12:26:45;;;;;;;15.85;14.55;;;21.90;75.70;;;;;;5168678;28;20049;-73
2021/06/22 12:29:22;;;;;;;15.68;14.48;;;22.00;75.00;;;;;;5168530;28;20070;-74
2021/06/22 12:31:57;;;;;;;16.52;15.23;;;22.00;74.10;;;;;;5167673;28;20096;-73
2021/06/22 12:34:31;;;;;;;15.73;14.52;;;22.00;73.70;;;;;;5164705;28;20122;-73
2021/06/22 12:37:07;;;;;;;16.27;14.90;;;22.20;74.70;;;;;;5161729;28;20034;-73
2021/06/22 12:39:41;;;;;;;15.82;14.48;;;22.30;72.60;;;;;;5164007;28;20436;-73
2021/06/22 12:42:19;;;;;;;16.08;14.88;;;22.40;72.90;;;;;;5164106;28;20042;-73
2021/06/22 12:44:51;;;;;;;15.93;14.63;;;22.60;73.20;;;;;;5142608;28;20054;-73
2021/06/22 12:47:23;;;;;;;16.40;15.10;;;22.80;73.20;;;;;;5158790;28;20104;-75
2021/06/22 12:49:56;;;;;;;16.23;15.02;;;23.00;71.60;;;;;;5159065;28;20054;-73
2021/06/22 12:52:29;;;;;;;16.60;15.30;;;23.20;72.20;;;;;;5146636;28;20045;-73
2021/06/22 12:55:01;;;;;;;16.70;15.40;;;23.20;69.90;;;;;;5162681;28;20042;-75
2021/06/22 12:57:33;;;;;;;16.73;15.52;;;23.20;71.10;;;;;;5159343;28;20528;-73
2021/06/22 13:00:06;;;;;;;16.90;15.60;;;23.20;69.90;;;;;;5161894;28;20448;-73
2021/06/22 13:02:38;;;;;;;16.50;15.07;;;23.20;68.90;;;;;;5161475;28;20587;-73
2021/06/22 13:05:10;;;;;;;16.13;14.93;;;23.20;68.30;;;;;;5161420;28;20080;-72
2021/06/22 13:07:47;;;;;;;16.23;15.02;;;23.10;70.50;;;;;;5161660;28;20133;-73
2021/06/22 13:10:19;;;;;;;15.85;14.65;;;23.00;70.40;;;;;;5151617;28;20054;-74